sensor_id;sensor_type;location;lat;lon;timestamp;P1;durP1;ratioP1;P2;durP2;ratioP2
10013;SDS011;45684;48.358;10.746;2023-02-11T00:00:37;31.10;;;19.77;;
10013;SDS011;45684;48.358;10.746;2023-02-11T00:03:06;31.13;;;19.00;;
10013;SDS011;45684;48.358;10.746;2023-02-11T00:05:34;32.37;;;19.03;;
10013;SDS011;45684;48.358;10.746;2023-02-11T00:08:02;29.33;;;18.30;;
10013;SDS011;45684;48.358;10.746;2023-02-11T00:10:30;31.00;;;19.63;;
10013;SDS011;45684;48.358;10.746;2023-02-11T00:12:58;31.67;;;19.63;;
10013;SDS011;45684;48.358;10.746;2023-02-11T00:15:27;34.43;;;20.80;;
10013;SDS011;45684;48.358;10.746;2023-02-11T00:17:55;29.53;;;19.10;;
10013;SDS011;45684;48.358;10.746;2023-02-11T00:20:22;33.83;;;20.67;;
10013;SDS011;45684;48.358;10.746;2023-02-11T00:22:50;29.63;;;19.27;;
10013;SDS011;45684;48.358;10.746;2023-02-11T00:25:18;27.63;;;19.50;;
10013;SDS011;45684;48.358;10.746;2023-02-11T00:27:46;31.37;;;20.53;;
10013;SDS011;45684;48.358;10.746;2023-02-11T00:30:14;33.03;;;19.73;;
10013;SDS011;45684;48.358;10.746;2023-02-11T00:32:43;32.13;;;20.67;;
10013;SDS011;45684;48.358;10.746;2023-02-11T00:35:11;33.63;;;21.03;;
10013;SDS011;45684;48.358;10.746;2023-02-11T00:37:39;31.37;;;20.17;;
10013;SDS011;45684;48.358;10.746;2023-02-11T00:40:09;31.67;;;19.60;;
10013;SDS011;45684;48.358;10.746;2023-02-11T00:42:38;32.13;;;19.00;;
10013;SDS011;45684;48.358;10.746;2023-02-11T00:45:06;28.73;;;19.10;;
10013;SDS011;45684;48.358;10.746;2023-02-11T00:47:35;30.80;;;19.90;;
10013;SDS011;45684;48.358;10.746;2023-02-11T00:50:05;32.43;;;21.00;;
10013;SDS011;45684;48.358;10.746;2023-02-11T00:52:33;34.93;;;20.53;;
10013;SDS011;45684;48.358;10.746;2023-02-11T00:55:01;29.13;;;18.53;;
10013;SDS011;45684;48.358;10.746;2023-02-11T00:57:31;28.40;;;18.97;;
10013;SDS011;45684;48.358;10.746;2023-02-11T00:59:58;29.97;;;20.27;;
10013;SDS011;45684;48.358;10.746;2023-02-11T01:02:26;28.67;;;19.03;;
10013;SDS011;45684;48.358;10.746;2023-02-11T01:04:54;29.30;;;18.03;;
10013;SDS011;45684;48.358;10.746;2023-02-11T01:07:23;28.37;;;17.73;;
10013;SDS011;45684;48.358;10.746;2023-02-11T01:09:51;29.83;;;18.63;;
10013;SDS011;45684;48.358;10.746;2023-02-11T01:12:19;44.03;;;21.87;;
10013;SDS011;45684;48.358;10.746;2023-02-11T01:14:47;38.53;;;20.40;;
10013;SDS011;45684;48.358;10.746;2023-02-11T01:17:17;37.00;;;20.30;;
10013;SDS011;45684;48.358;10.746;2023-02-11T01:19:48;33.43;;;19.87;;
10013;SDS011;45684;48.358;10.746;2023-02-11T01:22:16;32.30;;;19.87;;
10013;SDS011;45684;48.358;10.746;2023-02-11T01:24:47;29.13;;;18.90;;
10013;SDS011;45684;48.358;10.746;2023-02-11T01:27:14;30.37;;;19.07;;
10013;SDS011;45684;48.358;10.746;2023-02-11T01:29:43;33.17;;;20.43;;
10013;SDS011;45684;48.358;10.746;2023-02-11T01:32:11;31.73;;;19.90;;
10013;SDS011;45684;48.358;10.746;2023-02-11T01:34:39;25.30;;;17.60;;
10013;SDS011;45684;48.358;10.746;2023-02-11T01:37:07;31.90;;;18.57;;
10013;SDS011;45684;48.358;10.746;2023-02-11T01:39:35;30.17;;;18.77;;
10013;SDS011;45684;48.358;10.746;2023-02-11T01:42:05;32.13;;;19.37;;
10013;SDS011;45684;48.358;10.746;2023-02-11T01:44:34;29.03;;;18.33;;
10013;SDS011;45684;48.358;10.746;2023-02-11T01:47:03;34.63;;;20.83;;
10013;SDS011;45684;48.358;10.746;2023-02-11T01:49:32;26.37;;;17.97;;
10013;SDS011;45684;48.358;10.746;2023-02-11T01:52:04;30.37;;;20.03;;
10013;SDS011;45684;48.358;10.746;2023-02-11T01:54:37;29.43;;;19.00;;
10013;SDS011;45684;48.358;10.746;2023-02-11T01:57:30;29.30;;;19.10;;
10013;SDS011;45684;48.358;10.746;2023-02-11T02:00:05;28.90;;;19.67;;
10013;SDS011;45684;48.358;10.746;2023-02-11T02:02:43;34.03;;;19.87;;
10013;SDS011;45684;48.358;10.746;2023-02-11T02:05:18;31.30;;;19.03;;
10013;SDS011;45684;48.358;10.746;2023-02-11T02:07:53;29.43;;;18.40;;
10013;SDS011;45684;48.358;10.746;2023-02-11T02:10:26;33.03;;;19.50;;
10013;SDS011;45684;48.358;10.746;2023-02-11T02:12:56;31.53;;;18.87;;
10013;SDS011;45684;48.358;10.746;2023-02-11T02:15:26;33.17;;;20.27;;
10013;SDS011;45684;48.358;10.746;2023-02-11T02:17:57;29.97;;;19.37;;
10013;SDS011;45684;48.358;10.746;2023-02-11T02:26:57;30.33;;;19.67;;
10013;SDS011;45684;48.358;10.746;2023-02-11T02:29:49;27.43;;;18.80;;
10013;SDS011;45684;48.358;10.746;2023-02-11T02:32:44;32.60;;;19.93;;
10013;SDS011;45684;48.358;10.746;2023-02-11T02:35:49;33.00;;;20.40;;
10013;SDS011;45684;48.358;10.746;2023-02-11T02:38:26;32.10;;;20.13;;
10013;SDS011;45684;48.358;10.746;2023-02-11T02:40:59;34.40;;;20.40;;
10013;SDS011;45684;48.358;10.746;2023-02-11T02:43:30;32.00;;;20.83;;
10013;SDS011;45684;48.358;10.746;2023-02-11T02:46:13;31.53;;;20.30;;
10013;SDS011;45684;48.358;10.746;2023-02-11T02:48:47;30.33;;;19.30;;
10013;SDS011;45684;48.358;10.746;2023-02-11T02:51:24;30.47;;;18.97;;
10013;SDS011;45684;48.358;10.746;2023-02-11T02:54:07;31.90;;;20.13;;
10013;SDS011;45684;48.358;10.746;2023-02-11T02:56:56;30.20;;;19.47;;
10013;SDS011;45684;48.358;10.746;2023-02-11T02:59:39;33.63;;;20.70;;
10013;SDS011;45684;48.358;10.746;2023-02-11T03:02:16;35.63;;;20.97;;
10013;SDS011;45684;48.358;10.746;2023-02-11T03:04:54;32.97;;;21.33;;
10013;SDS011;45684;48.358;10.746;2023-02-11T03:07:29;33.87;;;20.80;;
10013;SDS011;45684;48.358;10.746;2023-02-11T03:10:05;33.17;;;20.03;;
10013;SDS011;45684;48.358;10.746;2023-02-11T03:12:37;32.77;;;21.37;;
10013;SDS011;45684;48.358;10.746;2023-02-11T03:15:07;34.97;;;22.40;;
10013;SDS011;45684;48.358;10.746;2023-02-11T03:17:38;33.17;;;20.77;;
10013;SDS011;45684;48.358;10.746;2023-02-11T03:20:11;29.73;;;19.40;;
10013;SDS011;45684;48.358;10.746;2023-02-11T03:22:45;33.97;;;20.17;;
10013;SDS011;45684;48.358;10.746;2023-02-11T03:25:17;31.37;;;19.40;;
10013;SDS011;45684;48.358;10.746;2023-02-11T03:27:49;30.10;;;20.00;;
10013;SDS011;45684;48.358;10.746;2023-02-11T03:30:21;29.80;;;18.97;;
10013;SDS011;45684;48.358;10.746;2023-02-11T03:32:55;31.27;;;19.47;;
10013;SDS011;45684;48.358;10.746;2023-02-11T03:35:29;32.23;;;20.83;;
10013;SDS011;45684;48.358;10.746;2023-02-11T03:38:03;33.07;;;21.00;;
10013;SDS011;45684;48.358;10.746;2023-02-11T03:40:34;32.67;;;21.17;;
10013;SDS011;45684;48.358;10.746;2023-02-11T03:43:05;32.33;;;21.37;;
10013;SDS011;45684;48.358;10.746;2023-02-11T03:45:36;32.93;;;19.43;;
10013;SDS011;45684;48.358;10.746;2023-02-11T03:48:06;30.30;;;20.80;;
10013;SDS011;45684;48.358;10.746;2023-02-11T03:50:48;31.70;;;19.93;;
10013;SDS011;45684;48.358;10.746;2023-02-11T03:53:18;34.40;;;21.17;;
10013;SDS011;45684;48.358;10.746;2023-02-11T03:55:49;31.63;;;19.50;;
10013;SDS011;45684;48.358;10.746;2023-02-11T03:58:19;31.40;;;19.90;;
10013;SDS011;45684;48.358;10.746;2023-02-11T04:00:47;33.53;;;21.70;;
10013;SDS011;45684;48.358;10.746;2023-02-11T04:03:15;28.17;;;19.27;;
10013;SDS011;45684;48.358;10.746;2023-02-11T04:05:43;30.20;;;20.20;;
10013;SDS011;45684;48.358;10.746;2023-02-11T04:08:12;34.00;;;20.33;;
10013;SDS011;45684;48.358;10.746;2023-02-11T04:10:40;30.47;;;19.70;;
10013;SDS011;45684;48.358;10.746;2023-02-11T04:13:08;31.80;;;20.77;;
10013;SDS011;45684;48.358;10.746;2023-02-11T04:15:36;33.57;;;20.17;;
10013;SDS011;45684;48.358;10.746;2023-02-11T04:18:03;30.37;;;19.70;;
10013;SDS011;45684;48.358;10.746;2023-02-11T04:20:32;34.43;;;20.70;;
10013;SDS011;45684;48.358;10.746;2023-02-11T04:22:59;28.87;;;18.77;;
10013;SDS011;45684;48.358;10.746;2023-02-11T04:25:28;29.87;;;19.03;;
10013;SDS011;45684;48.358;10.746;2023-02-11T04:27:56;27.20;;;18.77;;
10013;SDS011;45684;48.358;10.746;2023-02-11T04:30:24;33.13;;;20.27;;
10013;SDS011;45684;48.358;10.746;2023-02-11T04:32:52;29.57;;;19.40;;
10013;SDS011;45684;48.358;10.746;2023-02-11T04:35:20;34.33;;;20.10;;
10013;SDS011;45684;48.358;10.746;2023-02-11T04:37:48;31.73;;;20.53;;
10013;SDS011;45684;48.358;10.746;2023-02-11T04:40:16;28.87;;;19.33;;
10013;SDS011;45684;48.358;10.746;2023-02-11T04:42:45;32.80;;;20.40;;
10013;SDS011;45684;48.358;10.746;2023-02-11T04:45:13;31.33;;;19.77;;
10013;SDS011;45684;48.358;10.746;2023-02-11T04:47:41;31.80;;;19.83;;
10013;SDS011;45684;48.358;10.746;2023-02-11T04:50:09;29.17;;;19.40;;
10013;SDS011;45684;48.358;10.746;2023-02-11T04:52:37;28.27;;;20.00;;
10013;SDS011;45684;48.358;10.746;2023-02-11T04:55:05;28.57;;;19.27;;
10013;SDS011;45684;48.358;10.746;2023-02-11T04:57:33;28.57;;;19.60;;
10013;SDS011;45684;48.358;10.746;2023-02-11T05:00:02;32.00;;;20.43;;
10013;SDS011;45684;48.358;10.746;2023-02-11T05:02:30;33.57;;;20.37;;
10013;SDS011;45684;48.358;10.746;2023-02-11T05:04:58;32.70;;;21.10;;
10013;SDS011;45684;48.358;10.746;2023-02-11T05:07:26;30.30;;;19.20;;
10013;SDS011;45684;48.358;10.746;2023-02-11T05:09:54;32.23;;;20.27;;
10013;SDS011;45684;48.358;10.746;2023-02-11T05:12:22;30.83;;;19.97;;
10013;SDS011;45684;48.358;10.746;2023-02-11T05:14:50;36.30;;;21.40;;
10013;SDS011;45684;48.358;10.746;2023-02-11T05:17:19;31.77;;;20.87;;
10013;SDS011;45684;48.358;10.746;2023-02-11T05:19:47;31.83;;;20.83;;
10013;SDS011;45684;48.358;10.746;2023-02-11T05:22:14;31.37;;;20.80;;
10013;SDS011;45684;48.358;10.746;2023-02-11T05:24:42;35.63;;;20.27;;
10013;SDS011;45684;48.358;10.746;2023-02-11T05:27:10;31.93;;;20.67;;
10013;SDS011;45684;48.358;10.746;2023-02-11T05:29:38;31.33;;;20.67;;
10013;SDS011;45684;48.358;10.746;2023-02-11T05:32:06;32.97;;;20.30;;
10013;SDS011;45684;48.358;10.746;2023-02-11T05:34:35;34.17;;;20.87;;
10013;SDS011;45684;48.358;10.746;2023-02-11T05:37:03;31.97;;;20.53;;
10013;SDS011;45684;48.358;10.746;2023-02-11T05:39:31;28.83;;;19.67;;
10013;SDS011;45684;48.358;10.746;2023-02-11T05:41:59;30.80;;;19.67;;
10013;SDS011;45684;48.358;10.746;2023-02-11T05:44:26;33.40;;;20.87;;
10013;SDS011;45684;48.358;10.746;2023-02-11T05:46:54;32.53;;;20.50;;
10013;SDS011;45684;48.358;10.746;2023-02-11T05:49:22;31.90;;;20.67;;
10013;SDS011;45684;48.358;10.746;2023-02-11T05:51:51;31.70;;;19.97;;
10013;SDS011;45684;48.358;10.746;2023-02-11T05:54:19;28.83;;;19.33;;
10013;SDS011;45684;48.358;10.746;2023-02-11T05:56:47;32.50;;;20.17;;
10013;SDS011;45684;48.358;10.746;2023-02-11T05:59:15;36.90;;;22.83;;
10013;SDS011;45684;48.358;10.746;2023-02-11T06:01:43;32.50;;;21.10;;
10013;SDS011;45684;48.358;10.746;2023-02-11T06:04:11;29.07;;;19.43;;
10013;SDS011;45684;48.358;10.746;2023-02-11T06:06:39;31.87;;;19.63;;
10013;SDS011;45684;48.358;10.746;2023-02-11T06:09:08;30.33;;;18.83;;
10013;SDS011;45684;48.358;10.746;2023-02-11T06:11:37;27.03;;;18.90;;
10013;SDS011;45684;48.358;10.746;2023-02-11T06:14:04;32.07;;;20.27;;
10013;SDS011;45684;48.358;10.746;2023-02-11T06:16:32;32.03;;;20.50;;
10013;SDS011;45684;48.358;10.746;2023-02-11T06:19:00;28.43;;;18.47;;
10013;SDS011;45684;48.358;10.746;2023-02-11T06:21:28;28.70;;;18.40;;
10013;SDS011;45684;48.358;10.746;2023-02-11T06:24:10;27.80;;;18.37;;
10013;SDS011;45684;48.358;10.746;2023-02-11T06:26:38;38.03;;;25.90;;
10013;SDS011;45684;48.358;10.746;2023-02-11T06:29:06;35.00;;;24.17;;
10013;SDS011;45684;48.358;10.746;2023-02-11T06:31:35;32.37;;;20.77;;
10013;SDS011;45684;48.358;10.746;2023-02-11T06:34:04;31.27;;;20.10;;
10013;SDS011;45684;48.358;10.746;2023-02-11T06:36:32;31.23;;;19.20;;
10013;SDS011;45684;48.358;10.746;2023-02-11T06:39:00;28.53;;;18.90;;
10013;SDS011;45684;48.358;10.746;2023-02-11T06:41:29;26.57;;;18.70;;
10013;SDS011;45684;48.358;10.746;2023-02-11T06:43:57;26.23;;;18.10;;
10013;SDS011;45684;48.358;10.746;2023-02-11T06:46:25;27.83;;;18.17;;
10013;SDS011;45684;48.358;10.746;2023-02-11T06:48:52;25.30;;;17.80;;
10013;SDS011;45684;48.358;10.746;2023-02-11T06:51:20;24.13;;;16.97;;
10013;SDS011;45684;48.358;10.746;2023-02-11T06:53:48;29.43;;;19.87;;
10013;SDS011;45684;48.358;10.746;2023-02-11T06:56:16;28.57;;;19.10;;
10013;SDS011;45684;48.358;10.746;2023-02-11T06:58:47;31.13;;;20.13;;
10013;SDS011;45684;48.358;10.746;2023-02-11T07:01:19;29.20;;;19.47;;
10013;SDS011;45684;48.358;10.746;2023-02-11T07:03:48;29.53;;;18.83;;
10013;SDS011;45684;48.358;10.746;2023-02-11T07:06:18;28.33;;;19.63;;
10013;SDS011;45684;48.358;10.746;2023-02-11T07:08:47;33.00;;;21.00;;
10013;SDS011;45684;48.358;10.746;2023-02-11T07:11:16;29.57;;;19.87;;
10013;SDS011;45684;48.358;10.746;2023-02-11T07:13:47;30.10;;;19.83;;
10013;SDS011;45684;48.358;10.746;2023-02-11T07:16:15;31.83;;;22.03;;
10013;SDS011;45684;48.358;10.746;2023-02-11T07:18:44;32.07;;;21.80;;
10013;SDS011;45684;48.358;10.746;2023-02-11T07:21:14;31.90;;;20.93;;
10013;SDS011;45684;48.358;10.746;2023-02-11T07:23:43;30.57;;;20.57;;
10013;SDS011;45684;48.358;10.746;2023-02-11T07:26:12;27.63;;;19.47;;
10013;SDS011;45684;48.358;10.746;2023-02-11T07:28:42;27.70;;;18.90;;
10013;SDS011;45684;48.358;10.746;2023-02-11T07:31:12;26.07;;;19.00;;
10013;SDS011;45684;48.358;10.746;2023-02-11T07:33:42;25.77;;;18.97;;
10013;SDS011;45684;48.358;10.746;2023-02-11T07:36:11;27.67;;;20.07;;
10013;SDS011;45684;48.358;10.746;2023-02-11T07:38:40;29.93;;;21.40;;
10013;SDS011;45684;48.358;10.746;2023-02-11T07:41:09;27.90;;;22.00;;
10013;SDS011;45684;48.358;10.746;2023-02-11T07:43:38;29.20;;;22.13;;
10013;SDS011;45684;48.358;10.746;2023-02-11T07:46:08;31.83;;;22.23;;
10013;SDS011;45684;48.358;10.746;2023-02-11T07:48:41;28.60;;;20.30;;
10013;SDS011;45684;48.358;10.746;2023-02-11T07:51:10;33.43;;;22.97;;
10013;SDS011;45684;48.358;10.746;2023-02-11T07:53:39;28.70;;;19.43;;
10013;SDS011;45684;48.358;10.746;2023-02-11T07:56:08;28.40;;;18.33;;
10013;SDS011;45684;48.358;10.746;2023-02-11T07:58:37;27.50;;;18.67;;
10013;SDS011;45684;48.358;10.746;2023-02-11T08:01:07;23.87;;;18.13;;
10013;SDS011;45684;48.358;10.746;2023-02-11T08:03:37;26.70;;;17.70;;
10013;SDS011;45684;48.358;10.746;2023-02-11T08:06:09;44.87;;;26.63;;
10013;SDS011;45684;48.358;10.746;2023-02-11T08:08:38;33.10;;;21.83;;
10013;SDS011;45684;48.358;10.746;2023-02-11T08:11:07;28.70;;;20.17;;
10013;SDS011;45684;48.358;10.746;2023-02-11T08:13:36;27.30;;;18.50;;
10013;SDS011;45684;48.358;10.746;2023-02-11T08:16:04;28.67;;;18.63;;
10013;SDS011;45684;48.358;10.746;2023-02-11T08:18:33;29.27;;;19.13;;
10013;SDS011;45684;48.358;10.746;2023-02-11T08:21:02;25.43;;;18.57;;
10013;SDS011;45684;48.358;10.746;2023-02-11T08:23:34;27.57;;;18.90;;
10013;SDS011;45684;48.358;10.746;2023-02-11T08:26:02;24.07;;;17.10;;
10013;SDS011;45684;48.358;10.746;2023-02-11T08:28:33;26.77;;;18.80;;
10013;SDS011;45684;48.358;10.746;2023-02-11T08:31:06;22.73;;;16.90;;
10013;SDS011;45684;48.358;10.746;2023-02-11T08:33:36;22.10;;;15.93;;
10013;SDS011;45684;48.358;10.746;2023-02-11T08:36:07;22.60;;;16.40;;
10013;SDS011;45684;48.358;10.746;2023-02-11T08:38:37;19.73;;;14.83;;
10013;SDS011;45684;48.358;10.746;2023-02-11T08:41:06;25.63;;;22.83;;
10013;SDS011;45684;48.358;10.746;2023-02-11T08:43:35;23.70;;;18.33;;
10013;SDS011;45684;48.358;10.746;2023-02-11T08:46:06;24.43;;;17.60;;
10013;SDS011;45684;48.358;10.746;2023-02-11T08:48:35;23.17;;;16.13;;
10013;SDS011;45684;48.358;10.746;2023-02-11T08:51:05;23.63;;;16.77;;
10013;SDS011;45684;48.358;10.746;2023-02-11T08:53:34;21.60;;;15.80;;
10013;SDS011;45684;48.358;10.746;2023-02-11T08:56:04;19.47;;;14.00;;
10013;SDS011;45684;48.358;10.746;2023-02-11T08:58:32;21.47;;;14.43;;
10013;SDS011;45684;48.358;10.746;2023-02-11T09:01:00;19.43;;;15.17;;
10013;SDS011;45684;48.358;10.746;2023-02-11T09:03:29;21.83;;;15.90;;
10013;SDS011;45684;48.358;10.746;2023-02-11T09:05:57;21.17;;;15.77;;
10013;SDS011;45684;48.358;10.746;2023-02-11T09:08:25;23.13;;;15.50;;
10013;SDS011;45684;48.358;10.746;2023-02-11T09:10:54;22.60;;;15.10;;
10013;SDS011;45684;48.358;10.746;2023-02-11T09:13:24;21.80;;;16.00;;
10013;SDS011;45684;48.358;10.746;2023-02-11T09:15:52;24.77;;;16.13;;
10013;SDS011;45684;48.358;10.746;2023-02-11T09:18:19;21.80;;;15.73;;
10013;SDS011;45684;48.358;10.746;2023-02-11T09:20:47;22.60;;;16.03;;
10013;SDS011;45684;48.358;10.746;2023-02-11T09:23:16;24.03;;;16.10;;
10013;SDS011;45684;48.358;10.746;2023-02-11T09:25:44;25.13;;;17.80;;
10013;SDS011;45684;48.358;10.746;2023-02-11T09:28:12;22.87;;;16.10;;
10013;SDS011;45684;48.358;10.746;2023-02-11T09:30:41;24.83;;;18.17;;
10013;SDS011;45684;48.358;10.746;2023-02-11T09:33:09;23.10;;;17.13;;
10013;SDS011;45684;48.358;10.746;2023-02-11T09:35:37;24.23;;;18.10;;
10013;SDS011;45684;48.358;10.746;2023-02-11T09:38:04;24.53;;;16.90;;
10013;SDS011;45684;48.358;10.746;2023-02-11T09:40:32;24.60;;;19.00;;
10013;SDS011;45684;48.358;10.746;2023-02-11T09:43:01;26.83;;;21.37;;
10013;SDS011;45684;48.358;10.746;2023-02-11T09:45:34;27.33;;;18.17;;
10013;SDS011;45684;48.358;10.746;2023-02-11T09:48:04;25.97;;;18.80;;
10013;SDS011;45684;48.358;10.746;2023-02-11T09:50:41;24.50;;;19.00;;
10013;SDS011;45684;48.358;10.746;2023-02-11T09:53:13;23.03;;;17.23;;
10013;SDS011;45684;48.358;10.746;2023-02-11T09:55:46;29.70;;;21.13;;
10013;SDS011;45684;48.358;10.746;2023-02-11T09:58:23;24.37;;;17.87;;
10013;SDS011;45684;48.358;10.746;2023-02-11T10:00:56;25.23;;;17.10;;
10013;SDS011;45684;48.358;10.746;2023-02-11T10:03:38;57.00;;;35.57;;
10013;SDS011;45684;48.358;10.746;2023-02-11T10:06:27;26.07;;;16.77;;
10013;SDS011;45684;48.358;10.746;2023-02-11T10:09:05;20.47;;;15.93;;
10013;SDS011;45684;48.358;10.746;2023-02-11T10:11:46;21.80;;;15.30;;
10013;SDS011;45684;48.358;10.746;2023-02-11T10:14:25;19.83;;;14.83;;
10013;SDS011;45684;48.358;10.746;2023-02-11T10:17:11;22.90;;;15.07;;
10013;SDS011;45684;48.358;10.746;2023-02-11T10:19:54;21.40;;;15.50;;
10013;SDS011;45684;48.358;10.746;2023-02-11T10:22:35;20.70;;;15.00;;
10013;SDS011;45684;48.358;10.746;2023-02-11T10:27:44;22.40;;;16.17;;
10013;SDS011;45684;48.358;10.746;2023-02-11T10:30:15;21.03;;;15.53;;
10013;SDS011;45684;48.358;10.746;2023-02-11T10:32:51;22.83;;;17.97;;
10013;SDS011;45684;48.358;10.746;2023-02-11T10:35:25;19.87;;;15.53;;
10013;SDS011;45684;48.358;10.746;2023-02-11T10:37:53;18.47;;;14.47;;
10013;SDS011;45684;48.358;10.746;2023-02-11T10:40:22;22.07;;;16.47;;
10013;SDS011;45684;48.358;10.746;2023-02-11T10:42:52;22.30;;;17.00;;
10013;SDS011;45684;48.358;10.746;2023-02-11T10:45:24;23.90;;;18.70;;
10013;SDS011;45684;48.358;10.746;2023-02-11T10:47:56;17.77;;;13.70;;
10013;SDS011;45684;48.358;10.746;2023-02-11T10:50:27;20.33;;;14.27;;
10013;SDS011;45684;48.358;10.746;2023-02-11T10:53:10;18.93;;;14.57;;
10013;SDS011;45684;48.358;10.746;2023-02-11T10:55:55;20.77;;;15.53;;
10013;SDS011;45684;48.358;10.746;2023-02-11T10:58:24;20.70;;;15.37;;
10013;SDS011;45684;48.358;10.746;2023-02-11T11:03:27;19.47;;;14.77;;
10013;SDS011;45684;48.358;10.746;2023-02-11T11:06:00;19.70;;;15.83;;
10013;SDS011;45684;48.358;10.746;2023-02-11T11:08:37;18.03;;;14.53;;
10013;SDS011;45684;48.358;10.746;2023-02-11T11:11:08;20.37;;;16.00;;
10013;SDS011;45684;48.358;10.746;2023-02-11T11:13:38;17.83;;;14.20;;
10013;SDS011;45684;48.358;10.746;2023-02-11T11:16:08;17.60;;;13.80;;
10013;SDS011;45684;48.358;10.746;2023-02-11T11:18:45;17.63;;;13.57;;
10013;SDS011;45684;48.358;10.746;2023-02-11T11:21:16;16.77;;;14.50;;
10013;SDS011;45684;48.358;10.746;2023-02-11T11:23:47;16.13;;;11.87;;
10013;SDS011;45684;48.358;10.746;2023-02-11T11:26:17;16.40;;;11.93;;
10013;SDS011;45684;48.358;10.746;2023-02-11T11:28:53;14.43;;;11.63;;
10013;SDS011;45684;48.358;10.746;2023-02-11T11:31:25;13.63;;;11.47;;
10013;SDS011;45684;48.358;10.746;2023-02-11T11:33:57;17.13;;;13.53;;
10013;SDS011;45684;48.358;10.746;2023-02-11T11:36:32;16.50;;;12.30;;
10013;SDS011;45684;48.358;10.746;2023-02-11T11:39:13;17.00;;;13.07;;
10013;SDS011;45684;48.358;10.746;2023-02-11T11:41:50;19.83;;;13.70;;
10013;SDS011;45684;48.358;10.746;2023-02-11T11:44:27;16.83;;;14.00;;
10013;SDS011;45684;48.358;10.746;2023-02-11T11:47:15;16.20;;;12.07;;
10013;SDS011;45684;48.358;10.746;2023-02-11T11:49:50;17.83;;;12.20;;
10013;SDS011;45684;48.358;10.746;2023-02-11T11:52:31;15.27;;;11.97;;
10013;SDS011;45684;48.358;10.746;2023-02-11T11:55:04;14.20;;;11.20;;
10013;SDS011;45684;48.358;10.746;2023-02-11T11:57:38;14.53;;;11.53;;
10013;SDS011;45684;48.358;10.746;2023-02-11T12:00:13;14.67;;;11.97;;
10013;SDS011;45684;48.358;10.746;2023-02-11T12:03:02;13.63;;;10.77;;
10013;SDS011;45684;48.358;10.746;2023-02-11T12:05:51;14.60;;;11.73;;
10013;SDS011;45684;48.358;10.746;2023-02-11T12:08:36;14.17;;;10.83;;
10013;SDS011;45684;48.358;10.746;2023-02-11T12:11:11;12.30;;;10.00;;
10013;SDS011;45684;48.358;10.746;2023-02-11T12:13:57;10.73;;;9.47;;
10013;SDS011;45684;48.358;10.746;2023-02-11T12:16:40;12.47;;;9.07;;
10013;SDS011;45684;48.358;10.746;2023-02-11T12:19:35;12.83;;;9.43;;
10013;SDS011;45684;48.358;10.746;2023-02-11T12:22:18;12.53;;;9.57;;
10013;SDS011;45684;48.358;10.746;2023-02-11T12:27:39;10.73;;;8.87;;
10013;SDS011;45684;48.358;10.746;2023-02-11T12:30:21;11.60;;;9.37;;
10013;SDS011;45684;48.358;10.746;2023-02-11T12:33:02;15.27;;;11.07;;
10013;SDS011;45684;48.358;10.746;2023-02-11T12:35:39;11.50;;;9.03;;
10013;SDS011;45684;48.358;10.746;2023-02-11T12:38:17;16.53;;;13.53;;
10013;SDS011;45684;48.358;10.746;2023-02-11T12:41:03;19.03;;;13.47;;
10013;SDS011;45684;48.358;10.746;2023-02-11T12:43:41;12.47;;;10.40;;
10013;SDS011;45684;48.358;10.746;2023-02-11T12:46:18;12.60;;;9.70;;
10013;SDS011;45684;48.358;10.746;2023-02-11T12:52:03;13.10;;;11.70;;
10013;SDS011;45684;48.358;10.746;2023-02-11T12:54:42;10.97;;;9.20;;
10013;SDS011;45684;48.358;10.746;2023-02-11T12:57:18;13.60;;;12.30;;
10013;SDS011;45684;48.358;10.746;2023-02-11T12:59:51;10.70;;;8.73;;
10013;SDS011;45684;48.358;10.746;2023-02-11T13:02:27;10.53;;;8.93;;
10013;SDS011;45684;48.358;10.746;2023-02-11T13:05:04;11.00;;;8.97;;
10013;SDS011;45684;48.358;10.746;2023-02-11T13:07:40;11.80;;;9.57;;
10013;SDS011;45684;48.358;10.746;2023-02-11T13:10:15;9.40;;;8.30;;
10013;SDS011;45684;48.358;10.746;2023-02-11T13:12:53;9.63;;;8.47;;
10013;SDS011;45684;48.358;10.746;2023-02-11T13:15:40;12.03;;;10.10;;
10013;SDS011;45684;48.358;10.746;2023-02-11T13:18:13;11.87;;;9.37;;
10013;SDS011;45684;48.358;10.746;2023-02-11T13:20:50;10.30;;;8.73;;
10013;SDS011;45684;48.358;10.746;2023-02-11T13:23:25;9.90;;;8.90;;
10013;SDS011;45684;48.358;10.746;2023-02-11T13:26:04;10.50;;;8.67;;
10013;SDS011;45684;48.358;10.746;2023-02-11T13:28:44;11.33;;;9.03;;
10013;SDS011;45684;48.358;10.746;2023-02-11T13:31:16;13.67;;;10.83;;
10013;SDS011;45684;48.358;10.746;2023-02-11T13:33:45;14.07;;;12.43;;
10013;SDS011;45684;48.358;10.746;2023-02-11T13:36:16;13.07;;;9.80;;
10013;SDS011;45684;48.358;10.746;2023-02-11T13:41:46;12.10;;;10.67;;
10013;SDS011;45684;48.358;10.746;2023-02-11T13:47:21;12.27;;;9.87;;
10013;SDS011;45684;48.358;10.746;2023-02-11T14:25:42;15.30;;;13.23;;
10013;SDS011;45684;48.358;10.746;2023-02-11T14:28:59;13.23;;;11.63;;
10013;SDS011;45684;48.358;10.746;2023-02-11T14:31:37;14.63;;;10.97;;
10013;SDS011;45684;48.358;10.746;2023-02-11T14:34:14;13.63;;;11.20;;
10013;SDS011;45684;48.358;10.746;2023-02-11T14:37:02;13.30;;;11.23;;
10013;SDS011;45684;48.358;10.746;2023-02-11T14:39:48;12.37;;;11.03;;
10013;SDS011;45684;48.358;10.746;2023-02-11T14:42:25;14.03;;;11.93;;
10013;SDS011;45684;48.358;10.746;2023-02-11T14:44:56;15.87;;;11.60;;
10013;SDS011;45684;48.358;10.746;2023-02-11T14:47:33;13.33;;;11.77;;
10013;SDS011;45684;48.358;10.746;2023-02-11T14:50:12;14.53;;;11.07;;
10013;SDS011;45684;48.358;10.746;2023-02-11T14:52:44;13.33;;;11.03;;
10013;SDS011;45684;48.358;10.746;2023-02-11T14:55:14;13.90;;;11.20;;
10013;SDS011;45684;48.358;10.746;2023-02-11T14:58:04;13.63;;;10.30;;
10013;SDS011;45684;48.358;10.746;2023-02-11T15:00:46;13.47;;;10.90;;
10013;SDS011;45684;48.358;10.746;2023-02-11T15:03:33;12.80;;;11.27;;
10013;SDS011;45684;48.358;10.746;2023-02-11T15:06:04;12.60;;;10.60;;
10013;SDS011;45684;48.358;10.746;2023-02-11T15:08:34;11.33;;;10.10;;
10013;SDS011;45684;48.358;10.746;2023-02-11T15:11:07;12.47;;;10.07;;
10013;SDS011;45684;48.358;10.746;2023-02-11T15:13:38;17.17;;;12.97;;
10013;SDS011;45684;48.358;10.746;2023-02-11T15:16:13;15.47;;;11.90;;
10013;SDS011;45684;48.358;10.746;2023-02-11T15:18:47;13.50;;;11.30;;
10013;SDS011;45684;48.358;10.746;2023-02-11T15:21:21;12.10;;;10.53;;
10013;SDS011;45684;48.358;10.746;2023-02-11T15:23:54;13.07;;;10.93;;
10013;SDS011;45684;48.358;10.746;2023-02-11T15:26:25;12.17;;;10.77;;
10013;SDS011;45684;48.358;10.746;2023-02-11T15:28:58;13.57;;;11.40;;
10013;SDS011;45684;48.358;10.746;2023-02-11T15:31:30;12.37;;;10.77;;
10013;SDS011;45684;48.358;10.746;2023-02-11T15:34:07;13.97;;;11.40;;
10013;SDS011;45684;48.358;10.746;2023-02-11T15:36:35;12.90;;;10.97;;